sensor_id;sensor_type;location;lat;lon;timestamp;P1;durP1;ratioP1;P2;durP2;ratioP2
948;SDS011;461;51.436;7.312;2023-08-20T00:02:10;11.13;;;7.70;;
948;SDS011;461;51.436;7.312;2023-08-20T00:04:37;13.43;;;9.40;;
948;SDS011;461;51.436;7.312;2023-08-20T00:07:03;11.60;;;9.03;;
948;SDS011;461;51.436;7.312;2023-08-20T00:09:29;10.00;;;9.00;;
948;SDS011;461;51.436;7.312;2023-08-20T00:11:55;11.37;;;9.87;;
948;SDS011;461;51.436;7.312;2023-08-20T00:14:22;8.70;;;7.00;;
948;SDS011;461;51.436;7.312;2023-08-20T00:17:07;13.30;;;7.03;;
948;SDS011;461;51.436;7.312;2023-08-20T00:19:34;7.60;;;6.20;;
948;SDS011;461;51.436;7.312;2023-08-20T00:22:00;10.60;;;7.13;;
948;SDS011;461;51.436;7.312;2023-08-20T00:24:26;9.07;;;7.47;;
948;SDS011;461;51.436;7.312;2023-08-20T00:26:53;8.60;;;7.40;;
948;SDS011;461;51.436;7.312;2023-08-20T00:29:19;11.20;;;8.20;;
948;SDS011;461;51.436;7.312;2023-08-20T00:31:45;10.53;;;9.30;;
948;SDS011;461;51.436;7.312;2023-08-20T00:34:11;10.70;;;9.27;;
948;SDS011;461;51.436;7.312;2023-08-20T00:36:37;10.50;;;8.77;;
948;SDS011;461;51.436;7.312;2023-08-20T00:39:03;11.33;;;9.30;;
948;SDS011;461;51.436;7.312;2023-08-20T00:41:29;11.33;;;9.00;;
948;SDS011;461;51.436;7.312;2023-08-20T00:43:55;10.00;;;9.00;;
948;SDS011;461;51.436;7.312;2023-08-20T00:46:21;12.50;;;9.07;;
948;SDS011;461;51.436;7.312;2023-08-20T00:48:48;10.77;;;9.07;;
948;SDS011;461;51.436;7.312;2023-08-20T00:51:14;13.10;;;9.40;;
948;SDS011;461;51.436;7.312;2023-08-20T00:53:40;10.00;;;8.77;;
948;SDS011;461;51.436;7.312;2023-08-20T00:56:06;15.33;;;9.73;;
948;SDS011;461;51.436;7.312;2023-08-20T00:58:32;11.63;;;9.57;;
948;SDS011;461;51.436;7.312;2023-08-20T01:00:59;15.30;;;10.20;;
948;SDS011;461;51.436;7.312;2023-08-20T01:03:25;19.27;;;10.47;;
948;SDS011;461;51.436;7.312;2023-08-20T01:05:53;12.40;;;10.60;;
948;SDS011;461;51.436;7.312;2023-08-20T01:08:30;13.30;;;9.70;;
948;SDS011;461;51.436;7.312;2023-08-20T01:10:58;12.80;;;10.70;;
948;SDS011;461;51.436;7.312;2023-08-20T01:13:27;12.47;;;10.83;;
948;SDS011;461;51.436;7.312;2023-08-20T01:15:53;16.07;;;11.17;;
948;SDS011;461;51.436;7.312;2023-08-20T01:18:19;21.63;;;11.80;;
948;SDS011;461;51.436;7.312;2023-08-20T01:20:47;17.40;;;12.83;;
948;SDS011;461;51.436;7.312;2023-08-20T01:28:24;14.27;;;12.03;;
948;SDS011;461;51.436;7.312;2023-08-20T01:30:50;20.13;;;12.10;;
948;SDS011;461;51.436;7.312;2023-08-20T01:33:17;18.33;;;11.40;;
948;SDS011;461;51.436;7.312;2023-08-20T01:35:44;20.20;;;12.90;;
948;SDS011;461;51.436;7.312;2023-08-20T01:38:11;19.53;;;13.07;;
948;SDS011;461;51.436;7.312;2023-08-20T01:40:37;20.10;;;12.73;;
948;SDS011;461;51.436;7.312;2023-08-20T01:43:03;10.60;;;8.40;;
948;SDS011;461;51.436;7.312;2023-08-20T01:45:31;14.53;;;11.20;;
948;SDS011;461;51.436;7.312;2023-08-20T01:47:58;15.83;;;11.80;;
948;SDS011;461;51.436;7.312;2023-08-20T01:50:24;17.87;;;10.83;;
948;SDS011;461;51.436;7.312;2023-08-20T01:52:50;16.23;;;11.57;;
948;SDS011;461;51.436;7.312;2023-08-20T01:55:16;17.73;;;11.70;;
948;SDS011;461;51.436;7.312;2023-08-20T01:57:42;18.43;;;13.27;;
948;SDS011;461;51.436;7.312;2023-08-20T02:00:08;21.23;;;12.13;;
948;SDS011;461;51.436;7.312;2023-08-20T02:02:35;18.70;;;11.40;;
948;SDS011;461;51.436;7.312;2023-08-20T02:05:01;14.23;;;8.90;;
948;SDS011;461;51.436;7.312;2023-08-20T02:07:28;14.30;;;8.70;;
948;SDS011;461;51.436;7.312;2023-08-20T02:09:54;14.43;;;10.33;;
948;SDS011;461;51.436;7.312;2023-08-20T02:12:20;13.00;;;9.73;;
948;SDS011;461;51.436;7.312;2023-08-20T02:14:46;13.77;;;9.83;;
948;SDS011;461;51.436;7.312;2023-08-20T02:17:12;11.90;;;10.33;;
948;SDS011;461;51.436;7.312;2023-08-20T02:19:39;12.73;;;10.83;;
948;SDS011;461;51.436;7.312;2023-08-20T02:22:05;12.73;;;10.00;;
948;SDS011;461;51.436;7.312;2023-08-20T02:24:31;15.40;;;11.03;;
948;SDS011;461;51.436;7.312;2023-08-20T02:26:57;15.30;;;11.00;;
948;SDS011;461;51.436;7.312;2023-08-20T02:29:23;13.47;;;10.50;;
948;SDS011;461;51.436;7.312;2023-08-20T02:31:49;13.63;;;9.77;;
948;SDS011;461;51.436;7.312;2023-08-20T02:34:16;11.93;;;10.53;;
948;SDS011;461;51.436;7.312;2023-08-20T02:36:42;17.67;;;10.77;;
948;SDS011;461;51.436;7.312;2023-08-20T02:39:08;14.57;;;11.47;;
948;SDS011;461;51.436;7.312;2023-08-20T02:41:34;14.43;;;11.13;;
948;SDS011;461;51.436;7.312;2023-08-20T02:44:01;16.57;;;12.70;;
948;SDS011;461;51.436;7.312;2023-08-20T02:46:27;15.57;;;11.87;;
948;SDS011;461;51.436;7.312;2023-08-20T02:48:53;15.87;;;11.80;;
948;SDS011;461;51.436;7.312;2023-08-20T02:51:19;16.63;;;11.80;;
948;SDS011;461;51.436;7.312;2023-08-20T02:53:45;12.80;;;11.30;;
948;SDS011;461;51.436;7.312;2023-08-20T02:56:11;14.90;;;11.40;;
948;SDS011;461;51.436;7.312;2023-08-20T02:58:37;19.10;;;11.50;;
948;SDS011;461;51.436;7.312;2023-08-20T03:01:04;14.47;;;11.70;;
948;SDS011;461;51.436;7.312;2023-08-20T03:03:30;14.43;;;12.27;;
948;SDS011;461;51.436;7.312;2023-08-20T03:05:56;14.13;;;10.73;;
948;SDS011;461;51.436;7.312;2023-08-20T03:08:22;15.80;;;11.50;;
948;SDS011;461;51.436;7.312;2023-08-20T03:10:49;20.00;;;10.73;;
948;SDS011;461;51.436;7.312;2023-08-20T03:13:15;13.50;;;9.20;;
948;SDS011;461;51.436;7.312;2023-08-20T03:15:41;16.43;;;10.97;;
948;SDS011;461;51.436;7.312;2023-08-20T03:18:07;13.73;;;10.53;;
948;SDS011;461;51.436;7.312;2023-08-20T03:20:33;14.60;;;10.10;;
948;SDS011;461;51.436;7.312;2023-08-20T03:22:59;16.87;;;10.20;;
948;SDS011;461;51.436;7.312;2023-08-20T03:25:26;12.23;;;9.97;;
948;SDS011;461;51.436;7.312;2023-08-20T03:27:52;19.43;;;12.30;;
948;SDS011;461;51.436;7.312;2023-08-20T03:30:19;15.50;;;11.13;;
948;SDS011;461;51.436;7.312;2023-08-20T03:32:45;16.00;;;11.53;;
948;SDS011;461;51.436;7.312;2023-08-20T03:35:11;16.07;;;11.50;;
948;SDS011;461;51.436;7.312;2023-08-20T03:37:37;15.17;;;12.13;;
948;SDS011;461;51.436;7.312;2023-08-20T03:40:03;20.57;;;13.47;;
948;SDS011;461;51.436;7.312;2023-08-20T03:42:30;15.00;;;12.23;;
948;SDS011;461;51.436;7.312;2023-08-20T03:44:56;16.97;;;13.07;;
948;SDS011;461;51.436;7.312;2023-08-20T03:47:22;17.10;;;12.67;;
948;SDS011;461;51.436;7.312;2023-08-20T03:49:48;16.23;;;13.27;;
948;SDS011;461;51.436;7.312;2023-08-20T03:52:14;16.73;;;13.43;;
948;SDS011;461;51.436;7.312;2023-08-20T03:54:40;21.03;;;13.10;;
948;SDS011;461;51.436;7.312;2023-08-20T03:57:06;19.23;;;14.33;;
948;SDS011;461;51.436;7.312;2023-08-20T03:59:33;14.93;;;13.13;;
948;SDS011;461;51.436;7.312;2023-08-20T04:01:59;23.30;;;13.07;;
948;SDS011;461;51.436;7.312;2023-08-20T04:04:25;15.50;;;12.27;;
948;SDS011;461;51.436;7.312;2023-08-20T04:06:52;14.30;;;12.03;;
948;SDS011;461;51.436;7.312;2023-08-20T04:09:18;12.60;;;9.73;;
948;SDS011;461;51.436;7.312;2023-08-20T04:11:44;14.60;;;10.90;;
948;SDS011;461;51.436;7.312;2023-08-20T04:14:10;13.53;;;11.43;;
948;SDS011;461;51.436;7.312;2023-08-20T04:16:36;14.60;;;11.13;;
948;SDS011;461;51.436;7.312;2023-08-20T04:19:02;18.90;;;12.47;;
948;SDS011;461;51.436;7.312;2023-08-20T04:21:28;8.83;;;7.93;;
948;SDS011;461;51.436;7.312;2023-08-20T04:23:54;9.77;;;8.70;;
948;SDS011;461;51.436;7.312;2023-08-20T04:26:21;10.03;;;9.03;;
948;SDS011;461;51.436;7.312;2023-08-20T04:28:47;12.67;;;8.13;;
948;SDS011;461;51.436;7.312;2023-08-20T04:31:13;9.77;;;7.97;;
948;SDS011;461;51.436;7.312;2023-08-20T04:33:39;15.77;;;9.30;;
948;SDS011;461;51.436;7.312;2023-08-20T04:36:05;13.27;;;8.23;;
948;SDS011;461;51.436;7.312;2023-08-20T04:38:31;14.17;;;8.93;;
948;SDS011;461;51.436;7.312;2023-08-20T04:40:57;14.27;;;9.90;;
948;SDS011;461;51.436;7.312;2023-08-20T04:43:23;14.83;;;11.73;;
948;SDS011;461;51.436;7.312;2023-08-20T04:45:49;15.47;;;12.00;;
948;SDS011;461;51.436;7.312;2023-08-20T04:48:15;18.83;;;12.20;;
948;SDS011;461;51.436;7.312;2023-08-20T04:50:42;22.07;;;12.70;;
948;SDS011;461;51.436;7.312;2023-08-20T04:53:08;21.17;;;13.47;;
948;SDS011;461;51.436;7.312;2023-08-20T04:55:34;18.23;;;13.20;;
948;SDS011;461;51.436;7.312;2023-08-20T04:58:00;17.30;;;11.43;;
948;SDS011;461;51.436;7.312;2023-08-20T05:00:26;16.70;;;10.70;;
948;SDS011;461;51.436;7.312;2023-08-20T05:02:53;14.97;;;9.87;;
948;SDS011;461;51.436;7.312;2023-08-20T05:05:21;13.57;;;10.03;;
948;SDS011;461;51.436;7.312;2023-08-20T05:07:47;16.10;;;12.20;;
948;SDS011;461;51.436;7.312;2023-08-20T05:10:13;20.37;;;12.53;;
948;SDS011;461;51.436;7.312;2023-08-20T05:12:39;16.70;;;13.50;;
948;SDS011;461;51.436;7.312;2023-08-20T05:15:05;18.77;;;14.90;;
948;SDS011;461;51.436;7.312;2023-08-20T05:17:32;18.60;;;13.77;;
948;SDS011;461;51.436;7.312;2023-08-20T05:19:58;12.17;;;9.03;;
948;SDS011;461;51.436;7.312;2023-08-20T05:22:24;9.53;;;8.63;;
948;SDS011;461;51.436;7.312;2023-08-20T13:43:28;12.20;;;10.93;;
948;SDS011;461;51.436;7.312;2023-08-20T13:45:54;13.57;;;12.17;;
948;SDS011;461;51.436;7.312;2023-08-20T13:51:41;13.10;;;11.23;;
948;SDS011;461;51.436;7.312;2023-08-20T13:54:15;13.33;;;12.13;;
948;SDS011;461;51.436;7.312;2023-08-20T13:59:44;13.13;;;11.77;;
948;SDS011;461;51.436;7.312;2023-08-20T14:05:30;13.50;;;12.40;;
948;SDS011;461;51.436;7.312;2023-08-20T14:08:33;12.97;;;11.77;;
948;SDS011;461;51.436;7.312;2023-08-20T14:11:07;12.00;;;11.00;;
948;SDS011;461;51.436;7.312;2023-08-20T14:13:50;10.80;;;9.87;;
948;SDS011;461;51.436;7.312;2023-08-20T14:16:25;12.03;;;10.80;;
948;SDS011;461;51.436;7.312;2023-08-20T14:25:30;13.40;;;10.67;;
948;SDS011;461;51.436;7.312;2023-08-20T14:34:03;10.33;;;9.37;;
948;SDS011;461;51.436;7.312;2023-08-20T14:39:33;11.47;;;10.37;;
948;SDS011;461;51.436;7.312;2023-08-20T14:42:00;9.83;;;8.93;;
948;SDS011;461;51.436;7.312;2023-08-20T14:44:30;10.30;;;9.40;;
948;SDS011;461;51.436;7.312;2023-08-20T14:47:04;11.43;;;10.33;;
948;SDS011;461;51.436;7.312;2023-08-20T14:49:34;11.63;;;10.43;;
948;SDS011;461;51.436;7.312;2023-08-20T14:54:45;9.90;;;9.10;;
948;SDS011;461;51.436;7.312;2023-08-20T14:57:29;9.73;;;8.80;;
948;SDS011;461;51.436;7.312;2023-08-20T15:00:10;8.93;;;8.03;;
948;SDS011;461;51.436;7.312;2023-08-20T15:02:42;8.63;;;7.80;;
948;SDS011;461;51.436;7.312;2023-08-20T15:05:12;8.23;;;7.43;;
948;SDS011;461;51.436;7.312;2023-08-20T15:07:38;7.13;;;6.53;;
948;SDS011;461;51.436;7.312;2023-08-20T15:10:05;8.03;;;6.30;;
948;SDS011;461;51.436;7.312;2023-08-20T15:12:35;6.90;;;6.30;;
948;SDS011;461;51.436;7.312;2023-08-20T15:15:03;7.00;;;6.30;;
948;SDS011;461;51.436;7.312;2023-08-20T16:02:21;6.57;;;5.20;;
948;SDS011;461;51.436;7.312;2023-08-20T16:08:29;5.80;;;5.20;;
948;SDS011;461;51.436;7.312;2023-08-20T16:10:58;19.60;;;6.10;;
948;SDS011;461;51.436;7.312;2023-08-20T16:13:27;6.60;;;5.50;;
948;SDS011;461;51.436;7.312;2023-08-20T16:15:56;6.13;;;5.53;;
948;SDS011;461;51.436;7.312;2023-08-20T16:18:25;5.50;;;4.57;;
948;SDS011;461;51.436;7.312;2023-08-20T16:20:52;6.37;;;5.00;;
948;SDS011;461;51.436;7.312;2023-08-20T16:23:18;6.17;;;5.17;;
948;SDS011;461;51.436;7.312;2023-08-20T16:25:50;6.40;;;5.07;;
948;SDS011;461;51.436;7.312;2023-08-20T16:28:17;4.40;;;4.00;;
948;SDS011;461;51.436;7.312;2023-08-20T16:30:43;8.73;;;5.67;;
948;SDS011;461;51.436;7.312;2023-08-20T16:33:11;5.47;;;4.60;;
948;SDS011;461;51.436;7.312;2023-08-20T16:35:37;9.37;;;4.20;;
948;SDS011;461;51.436;7.312;2023-08-20T16:38:04;6.33;;;4.63;;
948;SDS011;461;51.436;7.312;2023-08-20T16:40:30;5.40;;;4.20;;
948;SDS011;461;51.436;7.312;2023-08-20T16:43:29;6.33;;;4.37;;
948;SDS011;461;51.436;7.312;2023-08-20T16:46:05;6.17;;;4.70;;
948;SDS011;461;51.436;7.312;2023-08-20T17:11:42;6.03;;;4.37;;
948;SDS011;461;51.436;7.312;2023-08-20T17:14:08;4.87;;;4.03;;
948;SDS011;461;51.436;7.312;2023-08-20T17:30:16;7.70;;;3.97;;
948;SDS011;461;51.436;7.312;2023-08-20T17:35:41;3.43;;;3.13;;
948;SDS011;461;51.436;7.312;2023-08-20T23:29:33;8.20;;;3.97;;
948;SDS011;461;51.436;7.312;2023-08-20T23:32:00;8.37;;;3.07;;
948;SDS011;461;51.436;7.312;2023-08-20T23:34:26;8.53;;;3.23;;
948;SDS011;461;51.436;7.312;2023-08-20T23:36:52;4.77;;;3.23;;
948;SDS011;461;51.436;7.312;2023-08-20T23:39:18;4.43;;;2.93;;
948;SDS011;461;51.436;7.312;2023-08-20T23:41:44;4.70;;;3.47;;
948;SDS011;461;51.436;7.312;2023-08-20T23:44:11;6.00;;;2.83;;
948;SDS011;461;51.436;7.312;2023-08-20T23:46:39;5.13;;;2.93;;
948;SDS011;461;51.436;7.312;2023-08-20T23:49:05;4.70;;;3.33;;
948;SDS011;461;51.436;7.312;2023-08-20T23:51:31;5.23;;;3.27;;
948;SDS011;461;51.436;7.312;2023-08-20T23:53:57;5.00;;;3.10;;
948;SDS011;461;51.436;7.312;2023-08-20T23:56:23;9.40;;;3.87;;
948;SDS011;461;51.436;7.312;2023-08-20T23:58:50;5.90;;;3.73;;
